createdAt,value
2023-02-21T00:00:17.078Z,14.32
2023-02-21T00:02:09.625Z,14.55
2023-02-21T00:04:00.824Z,12.43
2023-02-21T00:05:51.832Z,15.77
2023-02-21T00:07:43.532Z,13.50
2023-02-21T00:09:34.562Z,14.95
2023-02-21T00:11:25.538Z,14.63
2023-02-21T00:13:16.503Z,15.20
2023-02-21T00:15:07.391Z,13.93
2023-02-21T00:16:59.554Z,13.75
2023-02-21T00:18:53.577Z,15.90
2023-02-21T00:20:44.622Z,14.70
2023-02-21T00:22:35.653Z,14.57
2023-02-21T00:24:27.008Z,12.68
2023-02-21T00:26:17.921Z,15.20
2023-02-21T00:28:08.805Z,14.52
2023-02-21T00:29:59.673Z,14.65
2023-02-21T00:31:50.418Z,14.60
2023-02-21T00:33:42.460Z,14.38
2023-02-21T00:35:33.344Z,14.50
2023-02-21T00:37:24.372Z,14.25
2023-02-21T00:39:14.986Z,12.80
2023-02-21T00:41:06.838Z,12.63
2023-02-21T00:42:58.120Z,13.77
2023-02-21T00:44:49.053Z,13.77
2023-02-21T00:46:40.405Z,13.02
2023-02-21T00:48:30.903Z,13.18
2023-02-21T00:50:24.136Z,11.70
2023-02-21T00:52:15.107Z,13.88
2023-02-21T00:54:05.984Z,13.05
2023-02-21T00:55:56.884Z,11.45
2023-02-21T00:57:47.813Z,12.35
2023-02-21T00:59:38.643Z,13.82
2023-02-21T01:01:29.676Z,12.18
2023-02-21T01:03:21.099Z,12.90
2023-02-21T01:05:12.011Z,12.27
2023-02-21T01:07:04.177Z,12.45
2023-02-21T01:08:55.126Z,14.02
2023-02-21T01:10:46.113Z,13.70
2023-02-21T01:12:37.185Z,14.35
2023-02-21T01:14:28.558Z,13.25
2023-02-21T01:16:19.492Z,13.82
2023-02-21T01:18:10.236Z,13.23
2023-02-21T01:20:01.163Z,16.42
2023-02-21T01:21:51.950Z,14.27
2023-02-21T01:23:44.853Z,14.25
2023-02-21T01:27:26.370Z,11.82
2023-02-21T01:29:17.467Z,13.55
2023-02-21T01:31:08.451Z,16.10
2023-02-21T01:32:59.400Z,11.88
2023-02-21T01:34:50.297Z,12.43
2023-02-21T01:36:41.125Z,14.52
2023-02-21T01:38:32.010Z,12.60
2023-02-21T01:40:25.989Z,13.88
2023-02-21T01:42:16.859Z,13.82
2023-02-21T01:44:23.151Z,14.45
2023-02-21T01:46:17.317Z,13.77
2023-02-21T01:48:08.133Z,13.57
2023-02-21T01:50:00.655Z,13.63
2023-02-21T01:51:57.647Z,14.18
2023-02-21T01:53:48.547Z,13.20
2023-02-21T01:55:42.581Z,14.18
2023-02-21T01:57:33.968Z,14.57
2023-02-21T01:59:24.749Z,14.15
2023-02-21T02:01:16.265Z,14.07
2023-02-21T02:03:14.473Z,13.30
2023-02-21T02:06:58.565Z,13.43
2023-02-21T02:08:51.817Z,13.38
2023-02-21T02:10:45.582Z,13.43
2023-02-21T02:12:58.712Z,13.20
2023-02-21T02:14:56.890Z,12.05
2023-02-21T02:18:47.399Z,11.57
2023-02-21T02:21:06.364Z,14.30
2023-02-21T02:23:10.273Z,11.80
2023-02-21T02:25:21.378Z,11.82
2023-02-21T02:27:34.780Z,13.75
2023-02-21T02:29:38.671Z,13.68
2023-02-21T02:31:39.661Z,13.68
2023-02-21T02:34:01.302Z,14.80
2023-02-21T02:35:42.796Z,14.95
2023-02-21T02:37:24.683Z,13.50
2023-02-21T02:39:11.976Z,13.40
2023-02-21T02:40:58.008Z,13.77
2023-02-21T02:42:49.012Z,15.13
2023-02-21T02:44:30.628Z,13.35
2023-02-21T02:46:12.198Z,13.20
2023-02-21T02:47:51.386Z,15.27
2023-02-21T02:49:30.473Z,15.40
2023-02-21T02:51:10.367Z,14.43
2023-02-21T02:52:52.873Z,14.48
2023-02-21T02:54:26.171Z,15.52
2023-02-21T02:56:02.220Z,15.48
2023-02-21T02:57:41.052Z,14.63
2023-02-21T02:59:21.238Z,14.73
2023-02-21T03:01:14.625Z,14.57
2023-02-21T03:03:09.321Z,14.57
2023-02-21T03:05:03.733Z,15.93
2023-02-21T03:07:00.283Z,15.35
2023-02-21T03:08:43.585Z,16.23
2023-02-21T03:10:27.097Z,14.23
2023-02-21T03:12:08.893Z,16.40
2023-02-21T03:13:49.996Z,17.77
2023-02-21T03:15:33.385Z,17.88
2023-02-21T03:17:14.393Z,17.02
2023-02-21T03:18:51.971Z,16.38
2023-02-21T03:20:28.139Z,18.25
2023-02-21T03:22:08.026Z,16.88
2023-02-21T03:23:44.554Z,19.20
2023-02-21T03:25:20.384Z,15.98
2023-02-21T03:27:00.549Z,15.98
2023-02-21T03:28:53.363Z,15.82
2023-02-21T03:30:27.907Z,16.80
2023-02-21T03:32:10.928Z,17.30
2023-02-21T03:33:44.718Z,16.50
2023-02-21T03:35:19.261Z,18.58
2023-02-21T03:36:53.064Z,15.15
2023-02-21T03:38:29.610Z,15.88
2023-02-21T03:40:06.246Z,16.65
2023-02-21T03:41:40.600Z,16.85
2023-02-21T03:43:13.915Z,18.10
2023-02-21T03:44:57.763Z,18.02
2023-02-21T03:46:30.168Z,17.73
2023-02-21T03:48:04.580Z,17.85
2023-02-21T03:49:39.525Z,16.02
2023-02-21T03:51:14.277Z,18.42
2023-02-21T03:52:47.705Z,17.00
2023-02-21T03:54:22.402Z,19.88
2023-02-21T03:55:57.665Z,18.65
2023-02-21T03:57:39.600Z,16.00
2023-02-21T03:59:11.956Z,17.08
2023-02-21T04:00:45.171Z,18.38
2023-02-21T04:02:19.076Z,16.80
2023-02-21T04:03:52.482Z,17.88
2023-02-21T04:05:25.726Z,16.95
2023-02-21T04:07:00.193Z,17.17
2023-02-21T04:08:32.725Z,19.45
2023-02-21T04:10:07.858Z,18.00
2023-02-21T04:11:48.900Z,17.42
2023-02-21T04:13:24.369Z,17.42
2023-02-21T04:14:58.646Z,15.43
2023-02-21T04:16:32.206Z,18.23
2023-02-21T04:18:04.685Z,16.92
2023-02-21T04:19:38.163Z,20.65
2023-02-21T04:21:12.706Z,17.90
2023-02-21T04:22:51.799Z,19.65
2023-02-21T04:24:32.465Z,19.75
2023-02-21T04:26:06.247Z,17.42
2023-02-21T04:27:52.594Z,17.98
2023-02-21T04:29:26.373Z,16.67
2023-02-21T04:30:59.504Z,17.30
2023-02-21T04:32:32.713Z,17.52
2023-02-21T04:34:12.401Z,18.92
2023-02-21T04:35:50.453Z,19.42
2023-02-21T04:37:40.781Z,17.73
2023-02-21T04:39:14.805Z,18.75
2023-02-21T04:40:48.009Z,19.48
2023-02-21T04:42:22.790Z,19.38
2023-02-21T04:43:56.423Z,18.42
2023-02-21T04:45:29.257Z,19.42
2023-02-21T04:47:02.559Z,18.40
2023-02-21T04:48:35.816Z,18.92
2023-02-21T04:50:09.986Z,21.65
2023-02-21T04:51:43.531Z,19.08
2023-02-21T04:53:16.963Z,19.38
2023-02-21T04:54:50.118Z,19.38
2023-02-21T04:56:27.348Z,18.40
2023-02-21T04:58:01.915Z,20.65
2023-02-21T04:59:35.037Z,21.40
2023-02-21T05:01:08.444Z,20.85
2023-02-21T05:02:44.092Z,19.30
2023-02-21T05:04:17.202Z,17.75
2023-02-21T05:05:50.942Z,19.63
2023-02-21T05:07:23.282Z,20.30
2023-02-21T05:08:57.371Z,20.85
2023-02-21T05:10:44.598Z,21.92
2023-02-21T05:12:18.243Z,20.10
2023-02-21T05:13:53.004Z,20.00
2023-02-21T05:15:26.567Z,22.88
2023-02-21T05:16:59.626Z,20.02
2023-02-21T05:18:34.587Z,23.83
2023-02-21T05:20:11.564Z,20.08
2023-02-21T05:21:44.713Z,21.42
2023-02-21T05:23:18.826Z,19.60
2023-02-21T05:24:52.061Z,20.65
2023-02-21T05:26:29.770Z,19.35
2023-02-21T05:28:02.873Z,21.08
2023-02-21T05:29:36.277Z,21.10
2023-02-21T05:31:09.622Z,20.20
2023-02-21T05:32:43.484Z,21.73
2023-02-21T05:34:19.722Z,20.45
2023-02-21T05:35:52.797Z,19.05
2023-02-21T05:37:26.067Z,20.77
2023-02-21T05:38:58.510Z,22.52
2023-02-21T05:40:31.701Z,21.10
2023-02-21T05:42:04.133Z,24.00
2023-02-21T05:43:37.227Z,21.63
2023-02-21T05:45:12.716Z,19.83
2023-02-21T05:46:46.010Z,21.55
2023-02-21T05:48:19.145Z,21.27
2023-02-21T05:49:52.322Z,21.42
2023-02-21T05:51:27.467Z,21.20
2023-02-21T05:53:02.524Z,22.63
2023-02-21T05:54:35.766Z,23.10
2023-02-21T05:56:10.610Z,22.20
2023-02-21T05:59:19.696Z,20.60
2023-02-21T06:00:53.155Z,24.20
2023-02-21T06:02:26.351Z,22.92
2023-02-21T06:03:59.561Z,21.35
2023-02-21T06:05:32.061Z,22.67
2023-02-21T06:07:05.673Z,21.75
2023-02-21T06:08:47.867Z,25.17
2023-02-21T06:10:22.038Z,24.55
2023-02-21T06:11:59.827Z,23.77
2023-02-21T06:13:33.701Z,22.83
2023-02-21T06:15:08.642Z,22.00
2023-02-21T06:16:43.739Z,23.17
2023-02-21T06:18:18.105Z,24.15
2023-02-21T06:19:51.320Z,23.75
2023-02-21T06:21:24.856Z,24.70
2023-02-21T06:22:57.934Z,25.67
2023-02-21T06:24:31.157Z,25.60
2023-02-21T06:26:04.551Z,23.25
2023-02-21T06:27:38.546Z,23.05
2023-02-21T06:29:12.602Z,26.83
2023-02-21T06:30:46.277Z,24.30
2023-02-21T06:32:20.828Z,23.45
2023-02-21T06:33:54.408Z,26.67
2023-02-21T06:35:27.766Z,25.85
2023-02-21T06:37:01.091Z,25.63
2023-02-21T06:38:34.354Z,25.90
2023-02-21T06:40:08.477Z,27.17
2023-02-21T06:41:41.543Z,26.75
2023-02-21T06:43:15.867Z,26.50
2023-02-21T06:44:50.569Z,26.35
2023-02-21T06:46:27.433Z,26.85
2023-02-21T06:48:01.912Z,24.90
2023-02-21T06:49:35.321Z,24.77
2023-02-21T06:51:11.185Z,26.85
2023-02-21T06:52:44.720Z,24.80
2023-02-21T06:54:17.957Z,27.23
2023-02-21T06:55:51.109Z,28.45
2023-02-21T06:57:24.288Z,26.23
2023-02-21T06:58:57.717Z,26.30
2023-02-21T07:00:31.051Z,28.90
2023-02-21T07:02:04.688Z,28.13
2023-02-21T07:03:44.232Z,27.58
2023-02-21T07:05:17.492Z,28.95
2023-02-21T07:06:50.931Z,29.48
2023-02-21T07:08:25.781Z,29.40
2023-02-21T07:11:34.245Z,24.80
2023-02-21T07:13:07.407Z,25.33
2023-02-21T07:14:40.692Z,25.65
2023-02-21T07:16:14.391Z,27.23
2023-02-21T07:17:47.528Z,26.70
2023-02-21T07:19:22.202Z,27.33
2023-02-21T07:20:55.440Z,28.38
2023-02-21T07:22:28.509Z,30.08
2023-02-21T07:24:01.695Z,30.17
2023-02-21T07:25:34.800Z,32.22
2023-02-21T07:27:08.020Z,30.83
2023-02-21T07:28:41.632Z,31.33
2023-02-21T07:30:15.925Z,29.17
2023-02-21T07:31:49.172Z,30.60
2023-02-21T07:33:22.393Z,31.58
2023-02-21T07:34:56.903Z,31.80
2023-02-21T07:36:30.214Z,30.20
2023-02-21T07:38:03.301Z,28.15
2023-02-21T07:39:36.729Z,32.30
2023-02-21T07:41:09.784Z,33.72
2023-02-21T07:42:44.528Z,34.10
2023-02-21T07:44:17.599Z,30.45
2023-02-21T07:45:50.768Z,33.67
2023-02-21T07:47:24.560Z,36.13
2023-02-21T07:48:58.064Z,34.45
2023-02-21T07:50:32.481Z,33.50
2023-02-21T07:52:05.847Z,34.15
2023-02-21T07:53:39.040Z,35.75
2023-02-21T07:55:13.434Z,33.50
2023-02-21T07:56:47.809Z,32.03
2023-02-21T07:58:21.504Z,38.30
2023-02-21T07:59:55.180Z,36.17
2023-02-21T08:01:28.693Z,36.03
2023-02-21T08:03:01.988Z,36.47
2023-02-21T08:04:35.223Z,36.30
2023-02-21T08:06:11.366Z,33.83
2023-02-21T08:07:45.185Z,33.10
2023-02-21T08:09:18.631Z,35.15
2023-02-21T08:10:52.073Z,30.98
2023-02-21T08:12:25.132Z,35.65
2023-02-21T08:13:58.252Z,33.95
2023-02-21T08:15:31.372Z,38.25
2023-02-21T08:17:04.742Z,33.90
2023-02-21T08:18:37.857Z,35.58
2023-02-21T08:20:11.668Z,36.67
2023-02-21T08:21:47.677Z,34.78
2023-02-21T08:23:21.513Z,37.63
2023-02-21T08:24:54.617Z,34.28
2023-02-21T08:26:27.733Z,34.45
2023-02-21T08:28:00.855Z,38.42
2023-02-21T08:29:34.062Z,31.63
2023-02-21T08:31:08.312Z,35.10
2023-02-21T08:32:41.846Z,33.78
2023-02-21T08:34:15.668Z,33.45
2023-02-21T08:35:48.959Z,31.75
2023-02-21T08:37:23.767Z,37.00
2023-02-21T08:38:56.886Z,31.83
2023-02-21T08:40:31.494Z,34.45
2023-02-21T08:42:04.954Z,35.60
2023-02-21T08:43:38.667Z,32.47
2023-02-21T08:45:17.924Z,34.25
2023-02-21T08:46:51.540Z,32.28
2023-02-21T08:48:25.101Z,32.67
2023-02-21T08:49:58.445Z,33.30
2023-02-21T08:51:33.723Z,33.28
2023-02-21T08:53:08.628Z,31.65
2023-02-21T08:54:41.842Z,31.85
2023-02-21T08:56:20.416Z,32.00
2023-02-21T08:57:55.776Z,30.88
2023-02-21T08:59:33.599Z,31.33
2023-02-21T09:01:07.149Z,34.47
2023-02-21T09:02:41.274Z,35.58
2023-02-21T09:04:14.424Z,31.55
2023-02-21T09:05:47.586Z,30.65
2023-02-21T09:07:23.205Z,33.63
2023-02-21T09:08:57.861Z,31.52
2023-02-21T09:10:34.331Z,31.65
2023-02-21T09:12:08.520Z,30.98
2023-02-21T09:13:41.850Z,31.80
2023-02-21T09:15:17.536Z,30.85
2023-02-21T09:16:50.771Z,29.92
2023-02-21T09:18:24.548Z,32.13
2023-02-21T09:19:57.608Z,32.13
2023-02-21T09:21:30.689Z,32.28
2023-02-21T09:23:03.792Z,31.63
2023-02-21T09:24:39.381Z,33.10
2023-02-21T09:26:12.543Z,33.63
2023-02-21T09:27:46.836Z,39.20
2023-02-21T09:29:20.399Z,35.85
2023-02-21T09:30:53.600Z,34.95
2023-02-21T09:32:28.725Z,35.00
2023-02-21T09:34:01.928Z,37.85
2023-02-21T09:35:35.312Z,35.05
2023-02-21T09:37:08.474Z,36.05
2023-02-21T09:38:42.291Z,39.08
2023-02-21T09:40:33.557Z,38.40
2023-02-21T09:42:07.000Z,34.60
2023-02-21T09:43:44.347Z,34.90
2023-02-21T09:45:19.791Z,34.90
2023-02-21T09:46:58.174Z,34.75
2023-02-21T09:48:32.676Z,33.03
2023-02-21T09:50:13.828Z,32.63
2023-02-21T09:51:47.862Z,33.63
2023-02-21T09:53:28.317Z,32.28
2023-02-21T09:55:08.539Z,32.35
2023-02-21T09:56:43.320Z,32.63
2023-02-21T09:59:52.741Z,27.80
2023-02-21T10:01:44.818Z,27.50
2023-02-21T10:03:40.199Z,30.00
2023-02-21T10:05:29.771Z,31.50
2023-02-21T10:07:12.121Z,29.23
2023-02-21T10:08:55.366Z,30.55
2023-02-21T10:10:37.016Z,31.10
2023-02-21T10:12:27.227Z,29.00
2023-02-21T10:14:14.059Z,28.15
2023-02-21T10:15:55.238Z,27.77
2023-02-21T10:17:36.404Z,30.25
2023-02-21T10:19:20.282Z,31.65
2023-02-21T10:20:57.717Z,30.88
2023-02-21T10:22:38.208Z,27.95
2023-02-21T10:24:14.922Z,27.80
2023-02-21T10:25:49.124Z,31.30
2023-02-21T10:27:27.427Z,29.67
2023-02-21T10:29:01.929Z,29.40
2023-02-21T10:30:40.739Z,29.73
2023-02-21T10:32:15.317Z,28.63
2023-02-21T10:33:48.716Z,29.17
2023-02-21T10:35:21.961Z,28.92
2023-02-21T10:36:58.204Z,30.38
2023-02-21T10:38:31.382Z,30.95
2023-02-21T10:40:23.337Z,27.92
2023-02-21T10:41:58.284Z,27.48
2023-02-21T10:45:13.985Z,22.52
2023-02-21T10:46:59.732Z,26.65
2023-02-21T10:48:37.111Z,29.50
2023-02-21T10:50:12.282Z,24.42
2023-02-21T10:51:45.785Z,25.85
2023-02-21T10:53:30.590Z,25.02
2023-02-21T10:55:13.269Z,24.00
2023-02-21T10:56:53.091Z,26.58
2023-02-21T10:58:29.189Z,25.40
2023-02-21T11:00:10.077Z,25.23
2023-02-21T11:01:46.526Z,23.85
2023-02-21T11:03:27.580Z,25.50
2023-02-21T11:05:13.927Z,27.10
2023-02-21T11:06:51.787Z,23.27
2023-02-21T11:08:39.015Z,21.58
2023-02-21T11:10:43.938Z,19.05
2023-02-21T11:12:25.449Z,19.25
2023-02-21T11:14:22.912Z,22.05
2023-02-21T11:16:12.402Z,16.67
2023-02-21T11:17:46.950Z,16.08
2023-02-21T11:19:20.032Z,19.63
2023-02-21T11:20:54.788Z,18.65
2023-02-21T11:22:39.240Z,18.75
2023-02-21T11:24:13.491Z,18.77
2023-02-21T11:25:47.397Z,19.10
2023-02-21T11:27:20.943Z,17.73
2023-02-21T11:28:54.801Z,21.08
2023-02-21T11:30:28.117Z,17.92
2023-02-21T11:32:14.000Z,16.02
2023-02-21T11:33:56.303Z,21.08
2023-02-21T11:35:35.048Z,18.00
2023-02-21T11:37:08.278Z,18.20
2023-02-21T11:38:45.900Z,19.00
2023-02-21T11:40:35.509Z,17.98
2023-02-21T11:42:28.854Z,19.83
2023-02-21T11:44:02.139Z,20.80
2023-02-21T11:45:40.722Z,18.80
2023-02-21T11:47:22.932Z,20.63
2023-02-21T11:49:07.472Z,17.98
2023-02-21T11:50:49.500Z,21.85
2023-02-21T11:52:29.448Z,18.98
2023-02-21T11:54:03.754Z,18.67
2023-02-21T11:55:38.749Z,17.13
2023-02-21T11:57:23.170Z,17.73
2023-02-21T11:59:08.306Z,17.75
2023-02-21T12:01:01.835Z,22.10
2023-02-21T12:03:32.632Z,19.00
2023-02-21T12:05:26.341Z,18.95
2023-02-21T12:07:11.582Z,20.45
2023-02-21T12:08:52.301Z,20.83
2023-02-21T12:12:33.877Z,17.63
2023-02-21T12:14:49.504Z,16.98
2023-02-21T12:16:42.982Z,18.90
2023-02-21T12:18:46.162Z,18.38
2023-02-21T12:20:55.237Z,17.88
2023-02-21T12:22:52.583Z,16.85
2023-02-21T12:24:57.118Z,18.83
2023-02-21T12:26:49.515Z,19.60
2023-02-21T12:28:41.769Z,23.85
2023-02-21T12:34:32.508Z,15.38
2023-02-21T12:36:27.422Z,16.25
2023-02-21T12:38:09.888Z,19.92
2023-02-21T12:40:04.854Z,18.33
2023-02-21T12:42:04.083Z,17.77
2023-02-21T12:43:57.690Z,16.63
2023-02-21T12:45:48.549Z,21.70
2023-02-21T12:47:30.461Z,19.42
2023-02-21T12:49:10.217Z,19.33
2023-02-21T12:50:51.974Z,19.98
2023-02-21T12:52:31.432Z,20.13
2023-02-21T12:54:09.712Z,22.70
2023-02-21T12:55:48.831Z,18.25
2023-02-21T12:57:32.076Z,21.85
2023-02-21T12:59:16.875Z,20.42
2023-02-21T13:00:59.693Z,20.98
2023-02-21T13:02:45.316Z,22.60
2023-02-21T13:04:36.267Z,22.27
2023-02-21T13:06:21.012Z,22.10
2023-02-21T13:08:02.440Z,21.95
2023-02-21T13:09:39.167Z,25.15
2023-02-21T13:11:18.578Z,22.90
2023-02-21T13:13:00.019Z,22.50
2023-02-21T13:14:41.257Z,22.50
2023-02-21T13:16:15.592Z,24.58
2023-02-21T13:18:01.341Z,22.40
2023-02-21T13:19:43.945Z,25.17
2023-02-21T13:21:34.736Z,22.17
2023-02-21T13:23:27.185Z,22.35
2023-02-21T13:25:36.059Z,24.15
2023-02-21T13:27:50.588Z,23.95
2023-02-21T13:29:29.374Z,24.65
2023-02-21T13:31:05.873Z,21.90
2023-02-21T13:32:41.108Z,28.40
2023-02-21T13:34:20.885Z,26.65
2023-02-21T13:35:57.230Z,34.97
2023-02-21T13:37:36.387Z,25.98
2023-02-21T13:39:16.598Z,27.88
2023-02-21T13:40:55.421Z,36.40
2023-02-21T13:42:31.428Z,56.28
2023-02-21T13:44:11.403Z,53.20
2023-02-21T13:45:45.615Z,42.28
2023-02-21T13:47:21.622Z,44.88
2023-02-21T13:49:47.736Z,28.73
2023-02-21T13:51:47.072Z,24.33
2023-02-21T13:53:23.742Z,42.55
2023-02-21T13:55:27.313Z,35.15
2023-02-21T13:57:04.475Z,24.10
2023-02-21T13:58:40.096Z,24.95
2023-02-21T14:00:52.194Z,47.38
2023-02-21T14:02:32.650Z,26.73
2023-02-21T14:05:01.467Z,35.53
2023-02-21T14:06:37.780Z,28.30
2023-02-21T14:08:15.794Z,23.10
2023-02-21T14:09:50.405Z,31.83
2023-02-21T14:11:28.810Z,36.67
2023-02-21T14:13:21.558Z,26.98
2023-02-21T14:15:07.701Z,25.83
2023-02-21T14:16:50.630Z,33.30
2023-02-21T14:18:30.237Z,31.38
2023-02-21T14:20:05.968Z,43.63
2023-02-21T14:21:45.788Z,42.20
2023-02-21T14:23:23.233Z,31.95
2023-02-21T14:25:16.900Z,58.55
2023-02-21T14:26:55.390Z,50.22
2023-02-21T14:28:52.057Z,29.77
2023-02-21T14:30:34.919Z,29.42
2023-02-21T14:32:36.694Z,30.90
2023-02-21T14:34:12.822Z,34.88
2023-02-21T14:35:57.748Z,30.77
2023-02-21T14:37:37.617Z,28.90
2023-02-21T14:39:11.016Z,27.88
2023-02-21T14:41:01.111Z,26.50
2023-02-21T14:43:04.746Z,22.40
2023-02-21T14:46:51.586Z,22.40
2023-02-21T14:48:54.214Z,22.67
2023-02-21T14:50:43.184Z,24.80
2023-02-21T14:52:49.809Z,23.60
2023-02-21T14:54:59.990Z,22.90
2023-02-21T14:57:03.808Z,22.48
2023-02-21T14:59:26.215Z,25.08
2023-02-21T15:01:11.533Z,25.25
2023-02-21T15:02:53.999Z,25.83
2023-02-21T15:04:38.410Z,26.30
2023-02-21T15:06:19.113Z,42.45
2023-02-21T15:08:00.598Z,46.05
2023-02-21T15:09:34.028Z,43.40
2023-02-21T15:11:28.779Z,71.40
2023-02-21T15:13:06.684Z,45.20
2023-02-21T15:14:49.474Z,38.40
2023-02-21T15:16:22.856Z,42.40
2023-02-21T15:18:05.525Z,70.10
2023-02-21T15:19:38.783Z,92.03
2023-02-21T15:21:19.368Z,66.10
2023-02-21T15:23:03.302Z,75.65
2023-02-21T15:24:36.637Z,80.82
2023-02-21T15:26:21.781Z,68.15
2023-02-21T15:28:03.921Z,55.50
2023-02-21T15:29:37.253Z,67.05
2023-02-21T15:31:12.834Z,72.40
2023-02-21T15:32:56.159Z,77.20
2023-02-21T15:34:34.958Z,55.38
2023-02-21T15:36:17.615Z,32.65
2023-02-21T15:37:51.175Z,66.57
2023-02-21T15:39:30.983Z,40.28
2023-02-21T15:41:10.952Z,34.22
2023-02-21T15:42:46.235Z,34.28
2023-02-21T15:44:26.632Z,34.58
2023-02-21T15:46:04.991Z,36.63
2023-02-21T15:47:38.799Z,90.28
2023-02-21T15:49:21.348Z,67.95
2023-02-21T15:50:54.997Z,37.80
2023-02-21T15:52:35.438Z,36.22
2023-02-21T15:54:24.189Z,46.97
2023-02-21T15:56:19.976Z,51.40
2023-02-21T15:58:02.579Z,31.60
2023-02-21T15:59:37.384Z,27.77
2023-02-21T16:01:13.230Z,20.73
2023-02-21T16:02:46.525Z,23.05
2023-02-21T16:04:25.673Z,20.05
2023-02-21T16:06:17.956Z,22.00
2023-02-21T16:07:54.101Z,24.15
2023-02-21T16:09:31.344Z,31.52
2023-02-21T16:11:05.839Z,27.52
2023-02-21T16:12:43.419Z,24.58
2023-02-21T16:14:21.623Z,22.50
2023-02-21T16:16:01.226Z,24.90
2023-02-21T16:17:37.711Z,19.88
2023-02-21T16:19:11.340Z,21.40
2023-02-21T16:20:46.295Z,25.48
2023-02-21T16:22:30.802Z,40.97
2023-02-21T16:24:27.927Z,25.40
2023-02-21T16:26:04.565Z,23.55
2023-02-21T16:27:38.611Z,25.42
2023-02-21T16:29:11.632Z,23.13
2023-02-21T16:30:45.043Z,24.63
2023-02-21T16:32:22.388Z,29.23
2023-02-21T16:33:56.039Z,26.65
2023-02-21T16:35:29.897Z,20.10
2023-02-21T16:37:06.445Z,22.48
2023-02-21T16:38:39.589Z,21.33
2023-02-21T16:40:16.248Z,20.40
2023-02-21T16:41:49.719Z,18.55
2023-02-21T16:43:27.297Z,19.30
2023-02-21T16:45:00.560Z,17.20
2023-02-21T16:46:33.883Z,15.88
2023-02-21T16:48:09.055Z,18.30
2023-02-21T16:49:42.266Z,18.85
2023-02-21T16:51:15.755Z,21.48
2023-02-21T16:52:49.384Z,18.25
2023-02-21T16:54:22.493Z,17.70
2023-02-21T16:55:57.368Z,21.77
2023-02-21T16:59:04.998Z,18.52
2023-02-21T17:00:38.139Z,16.23
2023-02-21T17:02:15.462Z,19.58
2023-02-21T17:03:50.725Z,19.10
2023-02-21T17:05:25.692Z,17.42
2023-02-21T17:07:03.508Z,19.90
2023-02-21T17:08:36.629Z,21.10
2023-02-21T17:10:10.716Z,17.30
2023-02-21T17:11:43.804Z,16.83
2023-02-21T17:13:16.937Z,19.58
2023-02-21T17:14:50.056Z,19.08
2023-02-21T17:16:23.155Z,16.80
2023-02-21T17:17:56.331Z,19.45
2023-02-21T17:19:30.696Z,17.63
2023-02-21T17:21:05.544Z,18.30
2023-02-21T17:22:38.600Z,18.90
2023-02-21T17:24:14.339Z,19.83
2023-02-21T17:25:47.438Z,19.85
2023-02-21T17:27:20.608Z,19.55
2023-02-21T17:28:53.725Z,20.17
2023-02-21T17:30:27.208Z,18.77
2023-02-21T17:32:06.770Z,19.27
2023-02-21T17:33:41.264Z,20.20
2023-02-21T17:35:16.538Z,20.10
2023-02-21T17:36:50.664Z,19.83
2023-02-21T17:38:23.976Z,18.67
2023-02-21T17:39:58.305Z,17.52
2023-02-21T17:41:31.530Z,19.58
2023-02-21T17:43:08.834Z,23.95
2023-02-21T17:44:47.120Z,18.95
2023-02-21T17:46:21.784Z,20.13
2023-02-21T17:47:55.335Z,21.13
2023-02-21T17:49:29.872Z,18.42
2023-02-21T17:51:08.198Z,19.58
2023-02-21T17:52:41.858Z,22.65
2023-02-21T17:54:15.633Z,16.98
2023-02-21T17:55:49.005Z,18.02
2023-02-21T17:57:22.553Z,17.00
2023-02-21T17:58:57.213Z,18.65
2023-02-21T18:00:34.228Z,19.02
2023-02-21T18:02:08.921Z,20.23
2023-02-21T18:03:42.066Z,18.92
2023-02-21T18:05:15.405Z,21.35
2023-02-21T18:06:49.907Z,16.45
2023-02-21T18:08:23.333Z,20.35
2023-02-21T18:09:56.548Z,19.75
2023-02-21T18:11:30.031Z,21.33
2023-02-21T18:13:03.183Z,19.13
2023-02-21T18:14:36.356Z,16.35
2023-02-21T18:16:10.129Z,18.67
2023-02-21T18:17:43.316Z,14.85
2023-02-21T18:19:16.911Z,18.13
2023-02-21T18:20:50.080Z,17.25
2023-02-21T18:22:24.581Z,18.35
2023-02-21T18:23:57.772Z,18.85
2023-02-21T18:25:31.030Z,20.17
2023-02-21T18:27:04.547Z,21.25
2023-02-21T18:28:38.161Z,22.38
2023-02-21T18:30:12.651Z,19.08
2023-02-21T18:31:45.801Z,19.05
2023-02-21T18:33:19.438Z,19.58
2023-02-21T18:34:52.836Z,20.30
2023-02-21T18:36:26.502Z,17.70
2023-02-21T18:38:01.015Z,19.58
2023-02-21T18:39:34.181Z,18.55
2023-02-21T18:41:12.176Z,19.35
2023-02-21T18:42:47.506Z,17.02
2023-02-21T18:44:20.936Z,21.08
2023-02-21T18:45:57.139Z,18.67
2023-02-21T18:47:31.890Z,17.98
2023-02-21T18:49:05.921Z,18.27
2023-02-21T18:50:39.119Z,18.63
2023-02-21T18:52:13.064Z,17.52
2023-02-21T18:53:48.268Z,19.33
2023-02-21T18:55:21.585Z,18.98
2023-02-21T18:56:54.744Z,21.15
2023-02-21T18:58:28.013Z,20.80
2023-02-21T19:00:01.182Z,20.17
2023-02-21T19:01:34.498Z,18.98
2023-02-21T19:03:10.468Z,17.20
2023-02-21T19:04:44.197Z,20.63
2023-02-21T19:06:20.558Z,21.75
2023-02-21T19:07:54.536Z,21.98
2023-02-21T19:09:28.952Z,19.90
2023-02-21T19:11:02.198Z,20.23
2023-02-21T19:12:35.488Z,21.35
2023-02-21T19:14:08.777Z,17.60
2023-02-21T19:15:42.216Z,18.83
2023-02-21T19:17:15.551Z,21.02
2023-02-21T19:18:51.271Z,23.17
2023-02-21T19:20:24.452Z,22.98
2023-02-21T19:21:57.879Z,21.50
2023-02-21T19:23:31.016Z,20.10
2023-02-21T19:25:06.801Z,22.17
2023-02-21T19:26:42.990Z,22.08
2023-02-21T19:28:16.617Z,20.70
2023-02-21T19:29:49.956Z,23.23
2023-02-21T19:31:23.513Z,20.27
2023-02-21T19:32:59.038Z,22.88
2023-02-21T19:34:32.331Z,19.58
2023-02-21T19:36:06.729Z,21.15
2023-02-21T19:37:40.201Z,22.98
2023-02-21T19:39:13.680Z,21.73
2023-02-21T19:40:48.252Z,22.27
2023-02-21T19:42:22.115Z,21.27
2023-02-21T19:43:56.041Z,21.40
2023-02-21T19:45:29.659Z,21.35
2023-02-21T19:47:02.905Z,24.63
2023-02-21T19:48:36.020Z,22.15
2023-02-21T19:50:09.973Z,20.77
2023-02-21T19:51:44.411Z,19.98
2023-02-21T19:53:18.065Z,20.00
2023-02-21T19:54:51.303Z,23.13
2023-02-21T19:56:25.841Z,22.40
2023-02-21T19:57:58.982Z,23.35
2023-02-21T19:59:33.877Z,22.27
2023-02-21T20:01:07.857Z,22.88
2023-02-21T20:02:41.258Z,24.95
2023-02-21T20:04:17.588Z,24.33
2023-02-21T20:05:52.263Z,24.67
2023-02-21T20:07:25.451Z,27.27
2023-02-21T20:08:58.705Z,28.08
2023-02-21T20:10:32.028Z,28.08
2023-02-21T20:12:07.593Z,25.38
2023-02-21T20:13:42.003Z,28.15
2023-02-21T20:15:15.407Z,29.38
2023-02-21T20:16:48.688Z,27.63
2023-02-21T20:18:21.832Z,26.45
2023-02-21T20:19:54.929Z,28.10
2023-02-21T20:21:30.948Z,31.38
2023-02-21T20:23:04.541Z,27.88
2023-02-21T20:24:38.116Z,27.75
2023-02-21T20:26:12.898Z,29.52
2023-02-21T20:29:22.029Z,25.25
2023-02-21T20:30:55.201Z,26.33
2023-02-21T20:32:28.822Z,29.30
2023-02-21T20:34:02.764Z,26.95
2023-02-21T20:35:36.064Z,26.42
2023-02-21T20:37:10.960Z,27.42
2023-02-21T20:40:18.708Z,24.00
2023-02-21T20:41:52.022Z,26.60
2023-02-21T20:43:27.279Z,25.25
2023-02-21T20:45:01.876Z,26.75
2023-02-21T20:46:37.227Z,25.20
2023-02-21T20:48:11.602Z,25.27
2023-02-21T20:49:46.839Z,26.23
2023-02-21T20:51:30.394Z,26.00
2023-02-21T20:53:03.635Z,28.60
2023-02-21T20:54:37.107Z,25.70
2023-02-21T20:56:11.286Z,26.10
2023-02-21T20:57:44.612Z,23.52
2023-02-21T20:59:22.879Z,25.48
2023-02-21T21:00:56.315Z,25.00
2023-02-21T21:02:29.616Z,24.90
2023-02-21T21:04:05.148Z,26.90
2023-02-21T21:05:38.483Z,32.15
2023-02-21T21:07:15.310Z,29.42
2023-02-21T21:08:48.900Z,32.95
2023-02-21T21:10:22.216Z,26.60
2023-02-21T21:12:00.708Z,26.00
2023-02-21T21:13:33.848Z,22.70
2023-02-21T21:15:10.446Z,23.90
2023-02-21T21:16:43.886Z,23.45
2023-02-21T21:18:17.109Z,24.52
2023-02-21T21:19:50.941Z,24.50
2023-02-21T21:21:28.859Z,23.92
2023-02-21T21:23:02.009Z,24.27
2023-02-21T21:24:35.339Z,22.77
2023-02-21T21:26:09.824Z,19.58
2023-02-21T21:27:44.240Z,21.98
2023-02-21T21:29:17.569Z,21.77
2023-02-21T21:30:52.191Z,19.83
2023-02-21T21:32:26.592Z,20.65
2023-02-21T21:33:59.727Z,20.90
2023-02-21T21:35:33.117Z,19.38
2023-02-21T21:37:07.476Z,19.80
2023-02-21T21:38:40.777Z,19.63
2023-02-21T21:40:17.685Z,18.05
2023-02-21T21:41:52.851Z,18.20
2023-02-21T21:43:28.249Z,17.30
2023-02-21T21:45:02.206Z,18.92